Terminal Aerodrome Forecast
Issued by NWS Des Moines, IA

Current Version | Previous Version | Text Only | Print | Product List | Glossary On
Versions: 1 2 3 4 5 6 7 8 9 10 11 12 13 14 15 16 17 18 19 20
000
FTUS43 KDMX 231458 AAB
TAFALO
TAF AMD
KALO 231458Z 2315/2412 18006KT P6SM BKN014
      TEMPO 2315/2317 3SM BR BKN005
     FM231700 22007KT P6SM SCT008 BKN025
     FM231900 24006KT P6SM SKC
     FM232300 21003KT P6SM SKC=

USA.gov is the U.S. government's official web portal to all federal, state and local government web resources and services.